createdAt,value
2018-07-07T00:00:57.420Z,88.96
2018-07-07T00:03:26.099Z,89.10
2018-07-07T00:05:54.791Z,88.41
2018-07-07T00:08:23.480Z,88.77
2018-07-07T00:10:58.079Z,88.93
2018-07-07T00:13:26.771Z,89.14
2018-07-07T00:15:55.414Z,87.85
2018-07-07T00:18:24.071Z,87.29
2018-07-07T00:20:53.082Z,87.66
2018-07-07T00:23:21.707Z,87.34
2018-07-07T00:25:50.348Z,87.97
2018-07-07T00:28:18.982Z,87.94
2018-07-07T00:30:47.657Z,87.96
2018-07-07T00:33:16.308Z,87.77
2018-07-07T00:35:49.081Z,88.03
2018-07-07T00:38:17.714Z,88.92
2018-07-07T00:40:46.426Z,88.45
2018-07-07T00:43:15.104Z,89.49
2018-07-07T00:45:43.781Z,89.47
2018-07-07T00:48:12.726Z,89.37
2018-07-07T00:50:41.467Z,90.62
2018-07-07T00:53:10.264Z,89.98
2018-07-07T00:55:38.915Z,90.33
2018-07-07T00:58:07.610Z,90.91
2018-07-07T01:00:49.359Z,91.33
2018-07-07T01:03:18.422Z,90.82
2018-07-07T01:05:48.103Z,91.67
2018-07-07T01:08:17.379Z,91.85
2018-07-07T01:10:46.090Z,92.98
2018-07-07T01:13:15.446Z,93.79
2018-07-07T01:15:44.120Z,94.46
2018-07-07T01:18:12.899Z,93.93
2018-07-07T01:20:41.717Z,93.80
2018-07-07T01:23:10.494Z,94.09
2018-07-07T01:25:39.154Z,93.86
2018-07-07T01:28:07.866Z,92.63
2018-07-07T01:30:36.554Z,93.01
2018-07-07T01:33:05.250Z,92.26
2018-07-07T01:35:33.891Z,92.68
2018-07-07T01:38:02.599Z,91.95
2018-07-07T01:40:31.262Z,91.87
2018-07-07T01:42:59.952Z,91.58
2018-07-07T01:45:28.602Z,91.31
2018-07-07T01:47:57.247Z,91.24
2018-07-07T01:50:25.946Z,91.56
2018-07-07T01:52:54.616Z,90.12
2018-07-07T01:55:23.275Z,89.50
2018-07-07T01:57:51.932Z,89.91
2018-07-07T02:00:20.625Z,90.25
2018-07-07T02:02:49.280Z,89.99
2018-07-07T02:05:18.067Z,90.00
2018-07-07T02:07:46.744Z,90.14
2018-07-07T02:10:15.742Z,90.21
2018-07-07T02:12:44.410Z,89.76
2018-07-07T02:15:13.103Z,90.01
2018-07-07T02:17:41.787Z,90.13
2018-07-07T02:20:10.465Z,90.26
2018-07-07T02:22:39.207Z,89.64
2018-07-07T02:25:07.925Z,90.34
2018-07-07T02:27:36.626Z,89.54
2018-07-07T02:30:07.121Z,90.14
2018-07-07T02:32:35.869Z,90.35
2018-07-07T02:35:04.711Z,90.21
2018-07-07T02:37:33.531Z,90.85
2018-07-07T02:40:02.204Z,91.60
2018-07-07T02:42:30.892Z,91.60
2018-07-07T02:44:59.590Z,91.91
2018-07-07T02:47:28.628Z,92.02
2018-07-07T02:49:57.400Z,92.10
2018-07-07T02:52:26.097Z,92.21
2018-07-07T02:54:54.821Z,91.78
2018-07-07T02:57:23.461Z,92.89
2018-07-07T02:59:52.199Z,93.19
2018-07-07T03:02:20.915Z,92.72
2018-07-07T03:04:49.672Z,91.40
2018-07-07T03:07:18.373Z,91.16
2018-07-07T03:09:47.053Z,91.07
2018-07-07T03:12:15.730Z,91.53
2018-07-07T03:14:44.433Z,91.96
2018-07-07T03:17:13.216Z,92.29
2018-07-07T03:19:41.892Z,92.02
2018-07-07T03:22:10.723Z,91.77
2018-07-07T03:24:39.476Z,92.48
2018-07-07T03:27:08.190Z,92.58
2018-07-07T03:29:36.876Z,92.69
2018-07-07T03:32:05.690Z,93.19
2018-07-07T03:34:34.377Z,92.16
2018-07-07T03:37:03.031Z,92.16
2018-07-07T03:39:31.723Z,92.50
2018-07-07T03:42:00.388Z,90.49
2018-07-07T03:44:29.027Z,90.39
2018-07-07T03:46:57.755Z,90.00
2018-07-07T03:49:26.435Z,91.05
2018-07-07T03:51:55.180Z,90.57
2018-07-07T03:54:23.883Z,91.36
2018-07-07T03:56:52.562Z,92.37
2018-07-07T03:59:21.191Z,92.39
2018-07-07T04:01:49.883Z,92.15
2018-07-07T04:04:18.554Z,91.66
2018-07-07T04:06:47.315Z,91.94
2018-07-07T04:09:16.077Z,92.09
2018-07-07T04:11:44.713Z,92.36
2018-07-07T04:14:13.408Z,92.76
2018-07-07T04:16:42.058Z,92.71
2018-07-07T04:19:10.716Z,92.64
2018-07-07T04:21:39.414Z,91.46
2018-07-07T04:24:08.254Z,91.14
2018-07-07T04:26:36.956Z,90.64
2018-07-07T04:29:05.707Z,90.41
2018-07-07T04:31:34.406Z,90.51
2018-07-07T04:34:03.076Z,90.69
2018-07-07T04:36:31.734Z,89.84
2018-07-07T04:39:00.751Z,88.16
2018-07-07T04:41:29.425Z,88.01
2018-07-07T04:43:58.123Z,87.44
2018-07-07T04:46:26.764Z,86.31
2018-07-07T04:48:55.406Z,85.56
2018-07-07T04:51:24.694Z,85.07
2018-07-07T04:53:53.377Z,85.22
2018-07-07T04:56:22.075Z,83.54
2018-07-07T04:58:50.759Z,83.47
2018-07-07T05:01:19.490Z,83.67
2018-07-07T05:03:48.222Z,82.97
2018-07-07T05:06:16.976Z,82.11
2018-07-07T05:08:45.683Z,80.98
2018-07-07T05:11:14.770Z,79.57
2018-07-07T05:13:43.511Z,78.97
2018-07-07T05:16:12.287Z,80.01
2018-07-07T05:18:41.011Z,78.96
2018-07-07T05:21:09.772Z,77.52
2018-07-07T05:23:38.498Z,76.34
2018-07-07T05:26:07.211Z,75.71
2018-07-07T05:28:36.183Z,74.53
2018-07-07T05:31:04.868Z,74.87
2018-07-07T05:33:33.587Z,75.51
2018-07-07T05:36:02.284Z,76.49
2018-07-07T05:38:30.979Z,75.36
2018-07-07T05:40:59.636Z,75.38
2018-07-07T05:43:28.283Z,75.41
2018-07-07T05:45:57.007Z,76.08
2018-07-07T05:48:25.730Z,76.52
2018-07-07T05:50:54.483Z,76.28
2018-07-07T05:53:23.183Z,76.86
2018-07-07T05:55:51.888Z,77.57
2018-07-07T05:58:20.588Z,77.78
2018-07-07T06:00:49.304Z,78.48
2018-07-07T06:03:18.148Z,77.90
2018-07-07T06:05:46.936Z,77.79
2018-07-07T06:08:15.622Z,77.90
2018-07-07T06:10:44.415Z,77.19
2018-07-07T06:13:13.137Z,78.65
2018-07-07T06:15:41.967Z,79.21
2018-07-07T06:18:11.383Z,79.01
2018-07-07T06:20:40.031Z,79.55
2018-07-07T06:23:08.752Z,80.15
2018-07-07T06:25:37.490Z,80.01
2018-07-07T06:28:06.207Z,79.78
2018-07-07T06:30:34.881Z,80.00
2018-07-07T06:33:03.556Z,78.28
2018-07-07T06:35:32.207Z,77.26
2018-07-07T06:38:00.868Z,77.16
2018-07-07T06:40:29.748Z,76.81
2018-07-07T06:42:58.478Z,75.97
2018-07-07T06:45:27.219Z,74.06
2018-07-07T06:47:55.903Z,75.13
2018-07-07T06:50:24.546Z,74.05
2018-07-07T06:52:53.312Z,74.18
2018-07-07T06:55:21.954Z,73.61
2018-07-07T06:57:50.677Z,73.53
2018-07-07T07:00:19.368Z,73.54
2018-07-07T07:02:48.084Z,74.78
2018-07-07T07:05:16.839Z,73.47
2018-07-07T07:07:45.657Z,71.89
2018-07-07T07:10:14.445Z,71.99
2018-07-07T07:12:43.162Z,72.74
2018-07-07T07:15:11.903Z,72.24
2018-07-07T07:17:40.608Z,71.25
2018-07-07T07:20:09.318Z,70.67
2018-07-07T07:22:37.984Z,70.43
2018-07-07T07:25:06.931Z,71.44
2018-07-07T07:27:35.624Z,70.95
2018-07-07T07:30:06.625Z,70.04
2018-07-07T07:32:35.358Z,68.96
2018-07-07T07:35:04.132Z,68.12
2018-07-07T07:37:32.808Z,67.60
2018-07-07T07:40:01.619Z,68.47
2018-07-07T07:42:30.374Z,66.66
2018-07-07T07:44:59.097Z,66.46
2018-07-07T07:47:28.784Z,67.11
2018-07-07T07:49:57.495Z,65.96
2018-07-07T07:52:26.474Z,63.84
2018-07-07T07:54:55.783Z,62.94
2018-07-07T07:57:25.373Z,62.87
2018-07-07T07:59:54.048Z,63.25
2018-07-07T08:02:22.743Z,62.38
2018-07-07T08:04:51.433Z,59.88
2018-07-07T08:07:20.116Z,56.68
2018-07-07T08:09:48.834Z,57.02
2018-07-07T08:12:17.815Z,57.27
2018-07-07T08:14:46.480Z,57.03
2018-07-07T08:17:15.295Z,58.84
2018-07-07T08:19:44.051Z,59.64
2018-07-07T08:22:12.739Z,59.02
2018-07-07T08:24:41.391Z,59.31
2018-07-07T08:27:10.071Z,60.69
2018-07-07T08:29:38.756Z,57.57
2018-07-07T08:32:07.456Z,57.07
2018-07-07T08:34:36.243Z,56.78
2018-07-07T08:37:05.226Z,56.96
2018-07-07T08:39:33.898Z,56.92
2018-07-07T08:42:02.744Z,57.81
2018-07-07T08:44:31.568Z,58.87
2018-07-07T08:47:00.208Z,59.55
2018-07-07T08:49:28.958Z,59.63
2018-07-07T08:51:57.561Z,59.05
2018-07-07T08:54:26.207Z,58.53
2018-07-07T08:56:54.891Z,56.36
2018-07-07T08:59:23.907Z,54.34
2018-07-07T09:01:52.611Z,55.89
2018-07-07T09:04:21.250Z,55.48
2018-07-07T09:06:50.130Z,55.54
2018-07-07T09:09:18.871Z,57.20
2018-07-07T09:11:48.095Z,58.54
2018-07-07T09:14:16.804Z,58.97
2018-07-07T09:16:45.408Z,59.70
2018-07-07T09:19:14.155Z,59.69
2018-07-07T09:21:42.868Z,61.09
2018-07-07T09:24:11.509Z,61.98
2018-07-07T09:26:40.290Z,60.68
2018-07-07T09:29:17.835Z,60.77
2018-07-07T09:31:55.292Z,62.93
2018-07-07T09:34:24.011Z,62.64
2018-07-07T09:36:52.650Z,63.16
2018-07-07T09:39:38.315Z,64.16
2018-07-07T09:42:06.987Z,65.45
2018-07-07T09:44:35.639Z,66.32
2018-07-07T09:47:04.363Z,67.12
2018-07-07T09:49:33.055Z,68.09
2018-07-07T09:52:01.766Z,68.58
2018-07-07T09:54:45.362Z,68.57
2018-07-07T09:57:14.042Z,69.28
2018-07-07T09:59:42.782Z,70.05
2018-07-07T10:02:22.184Z,68.93
2018-07-07T10:05:01.835Z,70.58
2018-07-07T10:07:30.587Z,70.47
2018-07-07T10:09:59.319Z,70.20
2018-07-07T10:12:27.987Z,71.53
2018-07-07T10:14:58.111Z,72.69
2018-07-07T10:17:26.764Z,74.62
2018-07-07T10:19:55.517Z,76.40
2018-07-07T10:22:24.312Z,76.79
2018-07-07T10:24:52.961Z,78.76
2018-07-07T10:27:21.644Z,79.09
2018-07-07T10:29:50.458Z,80.26
2018-07-07T10:32:19.196Z,80.91
2018-07-07T10:34:47.907Z,80.79
2018-07-07T10:37:16.576Z,82.30
2018-07-07T10:39:45.359Z,81.26
2018-07-07T10:42:14.183Z,82.87
2018-07-07T10:44:42.991Z,81.31
2018-07-07T10:47:11.736Z,81.92
2018-07-07T10:49:40.400Z,80.79
2018-07-07T10:52:09.200Z,80.77
2018-07-07T10:54:38.783Z,81.06
2018-07-07T10:57:07.481Z,81.31
2018-07-07T10:59:36.151Z,80.63
2018-07-07T11:02:04.839Z,80.45
2018-07-07T11:04:33.883Z,79.15
2018-07-07T11:07:02.503Z,79.49
2018-07-07T11:09:31.299Z,80.56
2018-07-07T11:11:59.974Z,80.53
2018-07-07T11:14:28.651Z,81.29
2018-07-07T11:16:57.311Z,82.27
2018-07-07T11:19:25.998Z,79.56
2018-07-07T11:21:54.645Z,79.33
2018-07-07T11:24:23.328Z,77.25
2018-07-07T11:26:52.012Z,77.43
2018-07-07T11:29:22.952Z,76.34
2018-07-07T11:31:51.674Z,75.62
2018-07-07T11:34:20.313Z,75.69
2018-07-07T11:36:49.071Z,74.99
2018-07-07T11:39:17.677Z,74.47
2018-07-07T11:41:46.863Z,72.67
2018-07-07T11:44:15.700Z,73.20
2018-07-07T11:46:44.604Z,72.28
2018-07-07T11:49:13.281Z,72.58
2018-07-07T11:51:41.954Z,72.23
2018-07-07T11:54:10.601Z,71.42
2018-07-07T11:56:39.272Z,71.33
2018-07-07T11:59:07.973Z,71.80
2018-07-07T12:01:36.716Z,71.97
2018-07-07T12:04:05.474Z,72.22
2018-07-07T12:06:34.185Z,72.81
2018-07-07T12:09:02.958Z,73.82
2018-07-07T12:11:31.718Z,75.22
2018-07-07T12:14:00.355Z,74.85
2018-07-07T12:16:29.044Z,74.24
2018-07-07T12:18:57.756Z,74.03
2018-07-07T12:21:26.555Z,74.17
2018-07-07T12:23:55.264Z,73.79
2018-07-07T12:26:24.006Z,74.84
2018-07-07T12:28:52.731Z,74.25
2018-07-07T12:31:21.410Z,73.96
2018-07-07T12:33:50.149Z,74.03
2018-07-07T12:36:18.862Z,73.73
2018-07-07T12:38:47.602Z,73.44
2018-07-07T12:41:16.326Z,72.83
2018-07-07T12:43:45.096Z,73.07
2018-07-07T12:46:13.774Z,72.79
2018-07-07T12:48:42.413Z,70.71
2018-07-07T12:51:11.123Z,69.90
2018-07-07T12:53:39.844Z,69.39
2018-07-07T12:56:08.485Z,69.03
2018-07-07T12:58:37.203Z,68.42
2018-07-07T13:01:06.005Z,69.92
2018-07-07T13:03:34.680Z,68.43
2018-07-07T13:06:04.309Z,69.57
2018-07-07T13:08:32.967Z,67.22
2018-07-07T13:11:01.666Z,73.18
2018-07-07T13:13:30.419Z,75.62
2018-07-07T13:15:59.153Z,75.89
2018-07-07T13:18:27.862Z,75.86
2018-07-07T13:20:56.692Z,75.51
2018-07-07T13:23:25.378Z,74.84
2018-07-07T13:25:54.182Z,75.90
2018-07-07T13:28:23.034Z,76.85
2018-07-07T13:30:51.841Z,76.30
2018-07-07T13:33:20.500Z,76.24
2018-07-07T13:35:49.152Z,76.15
2018-07-07T13:38:17.796Z,75.69
2018-07-07T13:40:46.460Z,75.87
2018-07-07T13:43:15.096Z,75.31
2018-07-07T13:45:43.712Z,75.75
2018-07-07T13:48:12.509Z,76.88
2018-07-07T13:50:41.171Z,76.24
2018-07-07T13:53:09.830Z,76.54
2018-07-07T13:55:38.515Z,76.44
2018-07-07T13:58:07.903Z,76.19
2018-07-07T14:00:36.611Z,76.39
2018-07-07T14:03:05.360Z,75.43
2018-07-07T14:05:34.065Z,75.42
2018-07-07T14:08:02.719Z,75.02
2018-07-07T14:10:31.472Z,74.32
2018-07-07T14:13:00.130Z,74.77
2018-07-07T14:15:28.783Z,74.42
2018-07-07T14:17:57.486Z,74.81
2018-07-07T14:20:26.815Z,72.08
2018-07-07T14:22:55.580Z,70.95
2018-07-07T14:25:24.241Z,71.09
2018-07-07T14:27:52.974Z,70.40
2018-07-07T14:30:21.627Z,69.28
2018-07-07T14:32:50.374Z,69.46
2018-07-07T14:35:19.042Z,68.60
2018-07-07T14:37:47.707Z,68.70
2018-07-07T14:40:16.511Z,68.53
2018-07-07T14:42:53.346Z,69.45
2018-07-07T14:45:23.911Z,69.42
2018-07-07T14:47:53.658Z,70.23
2018-07-07T14:50:22.528Z,69.96
2018-07-07T14:52:51.227Z,70.11
2018-07-07T14:55:21.296Z,70.14
2018-07-07T14:57:50.068Z,69.51
2018-07-07T15:00:20.932Z,70.18
2018-07-07T15:02:50.783Z,69.11
2018-07-07T15:05:19.512Z,69.44
2018-07-07T15:07:48.960Z,68.95
2018-07-07T15:10:18.046Z,68.91
2018-07-07T15:12:47.612Z,69.68
2018-07-07T15:15:16.567Z,69.55
2018-07-07T15:17:46.084Z,69.48
2018-07-07T15:20:14.827Z,70.01
2018-07-07T15:22:43.641Z,71.02
2018-07-07T15:25:12.298Z,71.35
2018-07-07T15:27:41.014Z,70.49
2018-07-07T15:30:10.511Z,70.92
2018-07-07T15:32:39.365Z,70.77
2018-07-07T15:35:08.263Z,71.02
2018-07-07T15:37:37.085Z,72.03
2018-07-07T15:40:06.223Z,73.35
2018-07-07T15:42:35.013Z,73.60
2018-07-07T15:45:03.716Z,72.86
2018-07-07T15:47:32.652Z,74.56
2018-07-07T15:50:01.413Z,74.51
2018-07-07T15:52:30.071Z,75.45
2018-07-07T15:54:58.782Z,75.42
2018-07-07T15:57:27.437Z,76.19
2018-07-07T15:59:56.214Z,77.11
2018-07-07T16:02:24.977Z,77.80
2018-07-07T16:04:53.684Z,78.79
2018-07-07T16:07:22.478Z,79.60
2018-07-07T16:09:51.351Z,80.23
2018-07-07T16:12:20.007Z,79.54
2018-07-07T16:14:48.794Z,79.38
2018-07-07T16:17:17.480Z,79.53
2018-07-07T16:19:46.185Z,79.54
2018-07-07T16:22:14.878Z,78.78
2018-07-07T16:24:43.550Z,78.87
2018-07-07T16:27:12.295Z,79.87
2018-07-07T16:29:40.974Z,80.44
2018-07-07T16:32:09.673Z,81.45
2018-07-07T16:34:38.494Z,80.91
2018-07-07T16:37:07.179Z,81.85
2018-07-07T16:39:35.902Z,81.56
2018-07-07T16:42:04.654Z,82.11
2018-07-07T16:44:33.743Z,82.02
2018-07-07T16:47:03.210Z,82.26
2018-07-07T16:49:32.292Z,82.65
2018-07-07T16:52:01.991Z,82.35
2018-07-07T16:54:30.862Z,82.37
2018-07-07T16:57:00.010Z,83.11
2018-07-07T16:59:30.026Z,83.02
2018-07-07T17:01:58.907Z,83.96
2018-07-07T17:04:27.925Z,84.10
2018-07-07T17:06:57.332Z,84.62
2018-07-07T17:09:26.095Z,84.14
2018-07-07T17:11:54.940Z,84.99
2018-07-07T17:14:23.840Z,84.62
2018-07-07T17:16:52.954Z,85.46
2018-07-07T17:19:21.762Z,86.00
2018-07-07T17:21:50.605Z,86.07
2018-07-07T17:24:19.326Z,86.43
2018-07-07T17:26:48.110Z,87.26
2018-07-07T17:29:16.910Z,88.08
2018-07-07T17:31:45.943Z,87.70
2018-07-07T17:34:14.820Z,88.23
2018-07-07T17:36:44.054Z,90.05
2018-07-07T17:39:13.066Z,90.25
2018-07-07T17:41:41.895Z,91.71
2018-07-07T17:44:10.752Z,92.25
2018-07-07T17:46:43.923Z,88.88
2018-07-07T17:49:12.717Z,85.90
2018-07-07T17:51:41.443Z,84.53
2018-07-07T17:54:10.310Z,85.16
2018-07-07T17:56:46.005Z,84.11
2018-07-07T17:59:14.734Z,84.15
2018-07-07T18:01:43.535Z,85.51
2018-07-07T18:04:12.287Z,87.18
2018-07-07T18:06:40.960Z,87.39
2018-07-07T18:09:10.039Z,89.73
2018-07-07T18:11:38.802Z,89.73
2018-07-07T18:14:07.584Z,89.74
2018-07-07T18:16:36.359Z,90.20
2018-07-07T18:19:05.175Z,90.56
2018-07-07T18:21:33.896Z,91.13
2018-07-07T18:24:02.612Z,91.84
2018-07-07T18:26:31.329Z,92.07
2018-07-07T18:29:00.068Z,91.70
2018-07-07T18:31:28.836Z,91.59
2018-07-07T18:33:57.573Z,91.28
2018-07-07T18:36:26.759Z,91.65
2018-07-07T18:38:55.420Z,91.65
2018-07-07T18:41:25.062Z,92.87
2018-07-07T18:43:53.790Z,94.13
2018-07-07T18:46:22.435Z,93.02
2018-07-07T18:48:51.907Z,94.20
2018-07-07T18:51:20.632Z,95.13
2018-07-07T18:53:49.303Z,94.89
2018-07-07T18:56:18.103Z,95.14
2018-07-07T18:58:46.883Z,94.64
2018-07-07T19:01:15.820Z,95.63
2018-07-07T19:03:44.585Z,95.88
2018-07-07T19:06:13.452Z,95.50
2018-07-07T19:08:42.106Z,95.01
2018-07-07T19:11:10.830Z,95.23
2018-07-07T19:13:39.614Z,95.93
2018-07-07T19:16:08.305Z,93.17
2018-07-07T19:18:36.981Z,91.78
2018-07-07T19:21:10.890Z,93.40
2018-07-07T19:23:44.805Z,94.00
2018-07-07T19:26:18.713Z,95.06
2018-07-07T19:28:47.410Z,95.45
2018-07-07T19:31:16.091Z,94.83
2018-07-07T19:33:49.892Z,94.71
2018-07-07T19:36:23.700Z,92.04
2018-07-07T19:38:52.452Z,92.61
2018-07-07T19:41:21.179Z,90.94
2018-07-07T19:43:49.991Z,91.25
2018-07-07T19:46:18.758Z,92.28
2018-07-07T19:48:47.408Z,93.79
2018-07-07T19:51:16.360Z,93.91
2018-07-07T19:53:45.395Z,93.75
2018-07-07T19:56:14.102Z,94.37
2018-07-07T19:58:44.105Z,93.88
2018-07-07T20:01:12.786Z,93.37
2018-07-07T20:03:41.455Z,94.14
2018-07-07T20:06:10.159Z,94.04
2018-07-07T20:08:38.845Z,93.87
2018-07-07T20:11:07.557Z,94.07
2018-07-07T20:13:36.293Z,94.20
2018-07-07T20:16:09.852Z,94.41
2018-07-07T20:19:52.511Z,94.35
2018-07-07T20:22:21.247Z,93.98
2018-07-07T20:24:49.952Z,94.57
2018-07-07T20:27:23.708Z,95.55
2018-07-07T20:29:52.374Z,95.77
2018-07-07T20:32:26.246Z,96.73
2018-07-07T20:34:54.914Z,96.06
2018-07-07T20:37:23.613Z,96.44
2018-07-07T20:39:52.294Z,95.92
2018-07-07T20:42:20.984Z,96.10
2018-07-07T20:44:49.711Z,94.92
2018-07-07T20:47:18.347Z,94.02
2018-07-07T20:49:47.011Z,93.07
2018-07-07T20:52:15.676Z,91.59
2018-07-07T20:54:44.419Z,91.20
2018-07-07T20:57:13.044Z,91.98
2018-07-07T20:59:41.796Z,91.41
2018-07-07T21:02:10.614Z,90.70
2018-07-07T21:04:39.188Z,90.59
2018-07-07T21:07:07.883Z,91.81
2018-07-07T21:09:36.733Z,92.42
2018-07-07T21:12:05.419Z,91.51
2018-07-07T21:14:34.169Z,92.37
2018-07-07T21:17:02.962Z,91.47
2018-07-07T21:19:31.587Z,91.89
2018-07-07T21:22:00.360Z,91.84
2018-07-07T21:24:29.083Z,92.74
2018-07-07T21:26:57.740Z,92.98
2018-07-07T21:29:26.527Z,93.68
2018-07-07T21:31:55.103Z,94.03
2018-07-07T21:34:23.780Z,93.62
2018-07-07T21:36:52.571Z,93.59
2018-07-07T21:39:21.222Z,93.72
2018-07-07T21:41:49.951Z,94.01
2018-07-07T21:44:18.742Z,94.21
2018-07-07T21:46:47.405Z,94.43
2018-07-07T21:49:16.095Z,94.22
2018-07-07T21:51:44.759Z,94.62
2018-07-07T21:54:13.772Z,94.51
2018-07-07T21:56:42.517Z,95.24
2018-07-07T21:59:16.336Z,95.14
2018-07-07T22:01:56.395Z,95.53
2018-07-07T22:04:30.910Z,95.66
2018-07-07T22:07:05.197Z,95.22
2018-07-07T22:09:34.796Z,94.46
2018-07-07T22:12:03.881Z,95.12
2018-07-07T22:14:32.892Z,94.29
2018-07-07T22:17:01.623Z,94.36
2018-07-07T22:19:30.301Z,93.63
2018-07-07T22:22:02.623Z,94.48
2018-07-07T22:24:31.321Z,94.02
2018-07-07T22:27:01.303Z,94.68
2018-07-07T22:29:30.062Z,93.64
2018-07-07T22:32:00.011Z,93.47
2018-07-07T22:34:32.581Z,93.47
2018-07-07T22:37:01.419Z,92.83
2018-07-07T22:39:34.086Z,93.33
2018-07-07T22:42:04.956Z,93.23
2018-07-07T22:44:34.315Z,92.68
2018-07-07T22:47:03.018Z,93.16
2018-07-07T22:49:32.003Z,92.33
2018-07-07T22:52:00.715Z,92.48
2018-07-07T22:54:29.485Z,92.04
2018-07-07T22:56:58.214Z,92.01
2018-07-07T22:59:26.897Z,92.16
2018-07-07T23:01:55.571Z,91.02
2018-07-07T23:04:24.255Z,91.57
2018-07-07T23:06:53.162Z,90.26
2018-07-07T23:09:21.856Z,90.12
2018-07-07T23:11:50.577Z,90.48
2018-07-07T23:14:19.249Z,90.65
2018-07-07T23:16:47.951Z,89.52
2018-07-07T23:19:16.591Z,90.25
2018-07-07T23:21:45.299Z,90.01
2018-07-07T23:24:14.051Z,89.52
2018-07-07T23:26:42.690Z,89.70
2018-07-07T23:29:11.356Z,90.40
2018-07-07T23:31:40.042Z,89.54
2018-07-07T23:34:08.793Z,89.34
2018-07-07T23:36:37.489Z,90.03
2018-07-07T23:39:06.823Z,89.70
2018-07-07T23:41:35.518Z,89.35
2018-07-07T23:44:04.332Z,89.38
2018-07-07T23:46:33.031Z,90.25
2018-07-07T23:49:01.712Z,89.65
2018-07-07T23:51:30.424Z,90.00
2018-07-07T23:53:59.124Z,90.81
2018-07-07T23:56:27.836Z,90.03
2018-07-07T23:58:56.532Z,90.43
